Time;durP1;ratioP1;P1;durP2;ratioP2;P2;SDS_P1;SDS_P2;PMS_P1;PMS_P2;Temp;Humidity;BMP_temperature;BMP_pressure;BME280_temperature;BME280_humidity;BME280_pressure;Samples;Min_cycle;Max_cycle;Signal;HPM_P1;HPM_P2
2022/01/10 00:02:02;;;;;;;23.20;4.97;;;4.40;99.90;;;;;;5016113;28;20117;-53
2022/01/10 00:04:28;;;;;;;22.60;5.43;;;4.40;99.90;;;;;;5005289;28;20116;-51
2022/01/10 00:06:54;;;;;;;22.92;5.85;;;4.40;99.90;;;;;;5015298;28;20113;-51
2022/01/10 00:09:19;;;;;;;15.95;4.35;;;4.40;99.90;;;;;;5012887;28;20049;-52
2022/01/10 00:11:45;;;;;;;22.45;5.43;;;4.40;99.90;;;;;;5006260;28;20041;-50
2022/01/10 00:14:10;;;;;;;31.90;5.32;;;4.40;99.90;;;;;;5003336;28;20034;-50
2022/01/10 00:16:36;;;;;;;28.17;5.20;;;4.40;99.90;;;;;;5009729;28;20460;-50
2022/01/10 00:19:02;;;;;;;17.23;5.22;;;4.40;99.90;;;;;;5002659;28;20073;-50
2022/01/10 00:21:28;;;;;;;24.50;5.25;;;4.40;99.90;;;;;;5011991;28;20057;-53
2022/01/10 00:23:54;;;;;;;22.15;5.05;;;4.30;99.90;;;;;;5016442;28;20503;-53
2022/01/10 00:26:19;;;;;;;25.52;5.63;;;4.30;99.90;;;;;;5020339;28;20083;-51
2022/01/10 00:28:45;;;;;;;19.20;5.20;;;4.30;99.90;;;;;;5014474;28;20034;-53
2022/01/10 00:31:11;;;;;;;21.67;5.50;;;4.30;99.90;;;;;;5010346;28;20061;-55
2022/01/10 00:33:36;;;;;;;25.58;5.63;;;4.30;99.90;;;;;;5018171;28;20479;-52
2022/01/10 00:36:03;;;;;;;26.63;5.63;;;4.30;99.90;;;;;;5005056;28;20459;-54
2022/01/10 00:38:28;;;;;;;25.15;5.88;;;4.20;99.90;;;;;;5008304;28;20121;-53
2022/01/10 00:40:54;;;;;;;25.38;5.30;;;4.20;99.90;;;;;;5011836;28;20084;-52
2022/01/10 00:43:30;;;;;;;18.17;4.95;;;4.30;99.90;;;;;;5010489;28;20045;-52
2022/01/10 00:45:57;;;;;;;23.73;5.30;;;4.30;99.90;;;;;;5015389;28;20376;-52
2022/01/10 00:48:22;;;;;;;18.75;5.15;;;4.30;99.90;;;;;;5008033;28;20080;-52
2022/01/10 00:50:48;;;;;;;26.75;5.45;;;4.30;99.90;;;;;;4994927;28;20499;-53
2022/01/10 00:53:14;;;;;;;25.00;5.28;;;4.30;99.90;;;;;;5001639;28;20038;-52
2022/01/10 00:55:39;;;;;;;19.15;5.32;;;4.30;99.90;;;;;;5009587;28;20030;-52
2022/01/10 00:58:05;;;;;;;23.52;5.45;;;4.30;99.90;;;;;;5003756;28;20026;-52
2022/01/10 01:00:31;;;;;;;25.42;6.82;;;4.30;99.90;;;;;;5006409;28;20031;-51
2022/01/10 01:02:58;;;;;;;24.58;5.78;;;4.20;99.90;;;;;;5006385;28;20081;-51
2022/01/10 01:05:26;;;;;;;21.55;5.43;;;4.20;99.90;;;;;;5005993;28;20022;-53
2022/01/10 01:07:52;;;;;;;28.75;5.63;;;4.20;99.90;;;;;;5014797;28;20038;-52
2022/01/10 01:13:06;;;;;;;19.23;5.75;;;4.20;99.90;;;;;;5013554;28;20403;-52
2022/01/10 01:15:34;;;;;;;26.17;6.25;;;4.20;99.90;;;;;;5018212;28;20034;-53
2022/01/10 01:25:57;;;;;;;27.50;6.38;;;4.20;99.90;;;;;;4978037;28;20507;-51
2022/01/10 01:28:23;;;;;;;24.27;6.40;;;4.30;99.90;;;;;;5014498;28;20410;-51
2022/01/10 01:30:49;;;;;;;31.30;7.00;;;4.30;99.90;;;;;;5013391;28;20109;-51
2022/01/10 01:33:16;;;;;;;25.73;6.38;;;4.30;99.90;;;;;;5013116;28;20060;-53
2022/01/10 01:35:42;;;;;;;24.00;6.80;;;4.30;99.90;;;;;;5024112;28;20026;-53
2022/01/10 01:38:08;;;;;;;28.95;6.57;;;4.30;99.90;;;;;;5013962;28;20088;-53
2022/01/10 01:40:39;;;;;;;21.02;6.57;;;4.40;99.90;;;;;;5014026;28;20030;-54
2022/01/10 01:43:05;;;;;;;29.48;6.97;;;4.40;99.90;;;;;;5013179;28;20038;-50
2022/01/10 01:45:42;;;;;;;25.33;6.50;;;4.40;99.90;;;;;;5015235;28;20096;-51
2022/01/10 01:48:09;;;;;;;25.50;7.90;;;4.50;99.90;;;;;;5030604;28;20025;-51
2022/01/10 01:50:35;;;;;;;21.15;7.38;;;4.40;99.90;;;;;;5014335;28;20060;-50
2022/01/10 01:53:01;;;;;;;24.30;6.90;;;4.50;99.90;;;;;;5016462;28;20044;-52
2022/01/10 01:55:27;;;;;;;26.20;7.15;;;4.50;99.90;;;;;;5005935;28;20034;-51
2022/01/10 01:57:53;;;;;;;22.92;7.03;;;4.60;99.90;;;;;;5005573;28;20503;-49
2022/01/10 02:00:22;;;;;;;32.63;8.40;;;4.60;99.90;;;;;;5011179;28;20022;-50
2022/01/10 02:02:49;;;;;;;26.25;7.63;;;4.60;99.90;;;;;;5011232;28;20403;-52
2022/01/10 02:05:14;;;;;;;29.25;7.97;;;4.60;99.90;;;;;;5004854;28;20493;-50
2022/01/10 02:07:40;;;;;;;20.85;7.10;;;4.70;99.90;;;;;;5013585;28;20112;-50
2022/01/10 02:10:06;;;;;;;22.92;7.90;;;4.60;99.90;;;;;;5007011;28;20410;-51
2022/01/10 02:12:32;;;;;;;28.65;8.00;;;4.70;99.90;;;;;;5008337;28;20055;-54
2022/01/10 02:14:57;;;;;;;28.83;8.77;;;4.70;99.90;;;;;;5013911;28;20375;-52
2022/01/10 02:17:33;;;;;;;25.65;8.10;;;4.70;99.90;;;;;;5009661;28;20030;-50
2022/01/10 02:20:00;;;;;;;29.00;9.18;;;4.70;99.90;;;;;;5001044;28;20471;-51
2022/01/10 02:22:26;;;;;;;25.30;10.02;;;4.70;99.90;;;;;;5003828;28;20076;-50
2022/01/10 02:24:51;;;;;;;25.60;8.75;;;4.70;99.90;;;;;;5015957;28;20029;-50
2022/01/10 02:27:19;;;;;;;28.27;9.70;;;4.70;99.90;;;;;;5013155;28;20101;-52
2022/01/10 02:29:45;;;;;;;30.63;8.98;;;4.70;99.90;;;;;;5012927;28;20034;-50
2022/01/10 02:32:11;;;;;;;40.83;10.98;;;4.70;99.90;;;;;;5012533;28;20033;-54
2022/01/10 02:34:36;;;;;;;28.27;9.77;;;4.70;99.90;;;;;;5013497;28;20111;-51
2022/01/10 02:37:02;;;;;;;28.25;9.90;;;4.60;99.90;;;;;;5012240;28;20037;-51
2022/01/10 02:39:28;;;;;;;31.50;9.30;;;4.70;99.90;;;;;;5002750;28;20216;-50
2022/01/10 02:41:53;;;;;;;27.65;10.20;;;4.60;99.90;;;;;;5005134;28;20096;-50
2022/01/10 02:44:19;;;;;;;31.83;10.10;;;4.70;99.90;;;;;;5020754;28;20041;-51
2022/01/10 02:46:46;;;;;;;45.83;10.48;;;4.70;99.90;;;;;;5006068;28;20042;-50
2022/01/10 02:49:32;;;;;;;29.58;10.32;;;4.70;99.90;;;;;;5016348;28;20420;-50
2022/01/10 02:51:58;;;;;;;28.65;10.38;;;4.60;99.90;;;;;;5007103;28;20042;-50
2022/01/10 02:54:26;;;;;;;29.45;9.88;;;4.60;99.90;;;;;;5009733;28;20104;-50
2022/01/10 02:56:54;;;;;;;35.10;10.07;;;4.70;99.90;;;;;;5004714;28;20061;-53
2022/01/10 02:59:21;;;;;;;35.65;10.05;;;4.70;99.90;;;;;;5003368;28;20506;-50
2022/01/10 03:01:47;;;;;;;33.33;9.52;;;4.70;99.90;;;;;;5014706;28;20353;-51
2022/01/10 03:04:15;;;;;;;23.77;9.80;;;4.70;99.90;;;;;;5017649;28;20650;-51
2022/01/10 03:06:41;;;;;;;25.35;10.30;;;4.70;99.90;;;;;;5005908;28;20045;-50
2022/01/10 03:09:08;;;;;;;36.88;9.98;;;4.70;99.90;;;;;;5003881;28;20510;-51
2022/01/10 03:11:38;;;;;;;29.85;8.43;;;4.70;99.90;;;;;;5061821;22;20041;-52
2022/01/10 03:14:03;;;;;;;20.30;8.38;;;4.70;99.90;;;;;;5048821;28;20215;-52
2022/01/10 03:16:30;;;;;;;27.17;8.70;;;4.70;99.90;;;;;;5044220;28;20017;-51
2022/01/10 03:18:56;;;;;;;26.75;9.20;;;4.70;99.90;;;;;;5042639;28;20041;-52
2022/01/10 03:21:22;;;;;;;25.50;9.13;;;4.70;99.90;;;;;;5049149;28;20048;-53
2022/01/10 03:23:50;;;;;;;33.13;10.50;;;4.70;99.90;;;;;;5049612;28;20029;-54
2022/01/10 03:26:17;;;;;;;25.08;9.60;;;4.70;99.90;;;;;;5047880;28;20071;-51
2022/01/10 03:28:42;;;;;;;26.77;8.65;;;4.70;99.90;;;;;;5041401;28;20029;-51
2022/01/10 03:31:08;;;;;;;27.40;8.35;;;4.70;99.90;;;;;;5042993;28;20025;-54
2022/01/10 03:33:33;;;;;;;25.20;9.02;;;4.70;99.90;;;;;;5041708;28;20111;-54
2022/01/10 03:35:59;;;;;;;22.30;8.43;;;4.70;99.90;;;;;;5042803;28;20037;-52
2022/01/10 03:38:25;;;;;;;28.70;8.95;;;4.70;99.90;;;;;;5046945;28;20033;-52
2022/01/10 03:40:50;;;;;;;29.25;8.57;;;4.70;99.90;;;;;;5046092;28;20399;-54
2022/01/10 03:43:16;;;;;;;26.52;8.88;;;4.70;99.90;;;;;;5046141;28;20514;-52
2022/01/10 03:45:43;;;;;;;29.77;9.25;;;4.70;99.90;;;;;;5044433;28;20092;-52
2022/01/10 03:48:09;;;;;;;27.95;9.27;;;4.70;99.90;;;;;;5048343;28;20033;-53
2022/01/10 03:50:34;;;;;;;30.40;9.68;;;4.70;99.90;;;;;;5043103;28;20033;-53
2022/01/10 03:53:00;;;;;;;36.60;9.38;;;4.70;99.90;;;;;;5041858;28;20025;-52
2022/01/10 03:55:26;;;;;;;26.13;8.65;;;4.70;99.90;;;;;;5037745;28;20032;-52
2022/01/10 03:57:51;;;;;;;25.95;8.75;;;4.70;99.90;;;;;;5064915;28;20120;-52
2022/01/10 04:00:17;;;;;;;36.22;9.43;;;4.70;99.90;;;;;;5047026;28;20029;-54
2022/01/10 04:02:50;;;;;;;27.98;9.23;;;4.70;99.90;;;;;;5038516;28;20522;-53
2022/01/10 04:05:16;;;;;;;34.30;10.35;;;4.70;99.90;;;;;;5046788;28;20163;-54
2022/01/10 04:07:42;;;;;;;25.98;9.60;;;4.70;99.90;;;;;;5050189;28;20048;-53
2022/01/10 04:10:08;;;;;;;38.17;10.43;;;4.70;99.90;;;;;;5050518;28;20441;-53
2022/01/10 04:12:33;;;;;;;37.78;11.20;;;4.70;99.90;;;;;;5049616;28;20021;-54
2022/01/10 04:14:59;;;;;;;35.25;11.82;;;4.70;99.90;;;;;;5042185;28;20497;-55
2022/01/10 04:17:25;;;;;;;27.27;10.48;;;4.70;99.90;;;;;;5049230;28;20538;-53
2022/01/10 04:19:50;;;;;;;22.55;10.02;;;4.70;99.90;;;;;;5049832;28;20478;-52
2022/01/10 04:22:16;;;;;;;38.17;13.02;;;4.60;99.90;;;;;;5049589;28;20115;-52
2022/01/10 04:24:41;;;;;;;46.83;14.82;;;4.70;99.90;;;;;;5050146;28;20040;-52
2022/01/10 04:27:07;;;;;;;40.42;15.25;;;4.60;99.90;;;;;;5039150;28;20042;-55
2022/01/10 04:29:33;;;;;;;55.30;16.15;;;4.60;99.90;;;;;;5038242;28;20053;-53
2022/01/10 04:32:00;;;;;;;49.28;17.45;;;4.50;99.90;;;;;;5046383;28;20043;-52
2022/01/10 04:34:26;;;;;;;38.10;13.95;;;4.50;99.90;;;;;;5040405;28;20450;-52
2022/01/10 04:36:51;;;;;;;51.10;15.35;;;4.50;99.90;;;;;;5050840;28;20051;-54
2022/01/10 04:39:17;;;;;;;48.50;15.70;;;4.50;99.90;;;;;;5045523;28;20506;-55
2022/01/10 04:41:43;;;;;;;57.42;19.13;;;4.50;99.90;;;;;;5053708;28;20113;-55
2022/01/10 04:44:09;;;;;;;50.83;15.00;;;4.50;99.90;;;;;;5045120;28;20482;-55
2022/01/10 04:46:34;;;;;;;55.00;15.35;;;4.50;99.90;;;;;;5046350;28;20017;-52
2022/01/10 04:49:02;;;;;;;55.50;15.77;;;4.40;99.90;;;;;;5045831;28;20120;-52
2022/01/10 04:51:29;;;;;;;51.53;15.32;;;4.50;99.90;;;;;;5046422;28;20108;-52
2022/01/10 04:53:55;;;;;;;55.50;15.48;;;4.50;99.90;;;;;;5051035;28;20029;-52
2022/01/10 04:56:22;;;;;;;52.10;15.57;;;4.50;99.90;;;;;;5042462;28;20044;-53
2022/01/10 04:58:49;;;;;;;48.25;15.50;;;4.50;99.90;;;;;;5047247;28;20127;-52
2022/01/10 05:01:16;;;;;;;49.75;13.27;;;4.50;99.90;;;;;;5050917;28;20025;-52
2022/01/10 05:03:42;;;;;;;40.83;14.00;;;4.40;99.90;;;;;;5045497;28;20025;-56
2022/01/10 05:06:08;;;;;;;45.00;13.05;;;4.50;99.90;;;;;;5051882;28;20032;-53
2022/01/10 05:08:34;;;;;;;44.08;13.93;;;4.40;99.90;;;;;;5054314;28;20052;-52
2022/01/10 05:11:00;;;;;;;33.60;12.88;;;4.40;99.90;;;;;;5044642;28;20056;-51
2022/01/10 05:13:26;;;;;;;39.45;13.50;;;4.50;99.90;;;;;;5049969;28;20034;-52
2022/01/10 05:15:53;;;;;;;35.50;12.43;;;4.50;99.90;;;;;;5046076;28;20478;-54
2022/01/10 05:18:21;;;;;;;42.00;13.50;;;4.50;99.90;;;;;;5042154;28;20095;-56
2022/01/10 05:20:47;;;;;;;45.72;14.35;;;4.50;99.90;;;;;;5045894;28;20033;-54
2022/01/10 05:23:13;;;;;;;40.47;12.63;;;4.50;99.90;;;;;;5040936;28;20029;-53
2022/01/10 05:25:40;;;;;;;37.28;11.90;;;4.50;99.90;;;;;;5046293;28;20025;-52
2022/01/10 05:28:11;;;;;;;22.52;10.38;;;4.50;99.90;;;;;;5050345;28;20482;-52
2022/01/10 05:30:38;;;;;;;18.83;9.40;;;4.40;99.90;;;;;;5052775;28;20029;-52
2022/01/10 05:33:04;;;;;;;20.55;8.15;;;4.40;99.90;;;;;;5045214;28;20431;-52
2022/01/10 05:35:29;;;;;;;14.75;8.88;;;4.40;99.90;;;;;;5044660;28;20033;-52
2022/01/10 05:37:55;;;;;;;20.30;9.63;;;4.40;99.90;;;;;;5052924;28;20044;-52
2022/01/10 05:40:21;;;;;;;22.85;9.13;;;4.40;99.90;;;;;;5052343;28;20040;-53
2022/01/10 05:42:47;;;;;;;14.23;8.32;;;4.40;99.90;;;;;;5052930;28;20108;-52
2022/01/10 05:45:12;;;;;;;14.88;8.38;;;4.40;99.90;;;;;;5053680;28;20588;-55
2022/01/10 05:47:43;;;;;;;15.68;7.50;;;4.40;99.90;;;;;;5043962;28;20029;-51
2022/01/10 05:50:11;;;;;;;14.95;7.63;;;4.40;99.90;;;;;;5043517;28;20025;-54
2022/01/10 05:52:38;;;;;;;11.48;7.50;;;4.40;99.90;;;;;;5053334;28;20481;-55
2022/01/10 05:55:04;;;;;;;15.75;8.45;;;4.30;99.90;;;;;;5053561;28;20037;-55
2022/01/10 05:57:30;;;;;;;12.52;7.43;;;4.30;99.90;;;;;;5052440;28;20375;-53
2022/01/10 05:59:56;;;;;;;13.27;7.32;;;4.30;99.90;;;;;;5042378;28;20040;-53
2022/01/10 06:02:21;;;;;;;14.60;7.95;;;4.30;99.90;;;;;;5049555;28;20029;-54
2022/01/10 06:04:47;;;;;;;11.68;7.57;;;4.30;99.90;;;;;;5048054;28;20033;-54
2022/01/10 06:07:13;;;;;;;12.00;7.97;;;4.30;99.90;;;;;;5046560;28;20420;-55
2022/01/10 06:09:39;;;;;;;13.20;7.93;;;4.30;99.90;;;;;;5051498;28;20033;-55
2022/01/10 06:12:05;;;;;;;21.02;9.52;;;4.40;99.90;;;;;;5053191;28;20064;-55
2022/01/10 06:14:31;;;;;;;15.68;9.23;;;4.40;99.90;;;;;;5053175;28;20044;-51
2022/01/10 06:16:56;;;;;;;15.63;9.77;;;4.40;99.90;;;;;;5040358;28;20032;-51
2022/01/10 06:19:22;;;;;;;15.25;9.70;;;4.40;99.90;;;;;;5039852;28;20474;-51
2022/01/10 06:21:47;;;;;;;15.77;10.68;;;4.40;99.90;;;;;;5049813;28;20110;-53
2022/01/10 06:24:13;;;;;;;15.40;10.30;;;4.40;99.90;;;;;;5047118;28;20088;-50
2022/01/10 06:26:39;;;;;;;15.45;10.45;;;4.40;99.90;;;;;;5049533;28;20017;-50
2022/01/10 06:29:05;;;;;;;15.82;10.75;;;4.40;99.90;;;;;;5050780;28;20612;-50
2022/01/10 06:31:30;;;;;;;18.25;11.90;;;4.40;99.90;;;;;;5050324;28;20136;-52
2022/01/10 06:33:56;;;;;;;16.70;11.48;;;4.40;99.90;;;;;;5049372;28;20402;-52
2022/01/10 06:36:22;;;;;;;17.88;11.20;;;4.40;99.90;;;;;;5046873;28;20497;-51
2022/01/10 06:38:48;;;;;;;17.77;11.40;;;4.50;99.90;;;;;;5037910;28;20120;-50
2022/01/10 06:41:13;;;;;;;22.13;13.32;;;4.50;99.90;;;;;;5045635;28;20044;-50
2022/01/10 06:43:39;;;;;;;20.95;13.40;;;4.40;99.90;;;;;;5037887;28;20030;-49
2022/01/10 06:46:06;;;;;;;20.67;13.32;;;4.40;99.90;;;;;;5045685;28;20037;-50
2022/01/10 06:48:32;;;;;;;28.02;17.35;;;4.40;99.90;;;;;;5050073;28;20025;-52
2022/01/10 06:50:58;;;;;;;22.83;14.73;;;4.30;99.90;;;;;;5040972;28;20040;-49
2022/01/10 06:53:23;;;;;;;25.52;15.73;;;4.30;99.90;;;;;;5050367;28;20028;-49
2022/01/10 06:55:49;;;;;;;21.05;13.73;;;4.40;99.90;;;;;;5043007;28;20052;-51
2022/01/10 06:58:15;;;;;;;21.27;14.23;;;4.40;99.90;;;;;;5044731;28;20462;-51
2022/01/10 07:00:42;;;;;;;23.90;14.27;;;4.40;99.90;;;;;;5050107;28;20107;-50
2022/01/10 07:03:08;;;;;;;23.27;14.63;;;4.40;99.90;;;;;;5041319;28;20390;-52
2022/01/10 07:05:33;;;;;;;22.73;15.18;;;4.40;99.90;;;;;;5045124;28;20025;-50
2022/01/10 07:07:59;;;;;;;20.83;13.93;;;4.40;99.90;;;;;;5046366;28;20053;-49
2022/01/10 07:10:25;;;;;;;22.25;14.80;;;4.40;99.90;;;;;;5047099;28;20036;-51
2022/01/10 07:12:52;;;;;;;20.73;14.10;;;4.40;99.90;;;;;;5050425;28;20023;-50
2022/01/10 07:15:18;;;;;;;21.95;13.60;;;4.40;99.90;;;;;;5041138;28;20024;-49
2022/01/10 07:17:43;;;;;;;22.48;13.85;;;4.40;99.90;;;;;;5050228;28;20381;-49
2022/01/10 07:20:09;;;;;;;21.33;14.43;;;4.40;99.90;;;;;;5040295;28;20025;-58
2022/01/10 07:22:35;;;;;;;24.17;15.18;;;4.40;99.90;;;;;;5045676;28;20044;-54
2022/01/10 07:25:01;;;;;;;27.08;16.38;;;4.50;99.90;;;;;;5039545;28;20475;-58
2022/01/10 07:27:26;;;;;;;25.08;15.63;;;4.50;99.90;;;;;;5050115;28;20109;-58
2022/01/10 07:29:52;;;;;;;26.60;16.33;;;4.50;99.90;;;;;;5042794;28;20112;-52
2022/01/10 07:32:18;;;;;;;25.48;16.10;;;4.50;99.90;;;;;;5045948;28;20466;-52
2022/01/10 07:34:45;;;;;;;26.80;16.77;;;4.50;99.90;;;;;;5047266;28;20027;-52
2022/01/10 07:37:10;;;;;;;23.63;15.82;;;4.50;99.90;;;;;;5041181;28;20478;-52
2022/01/10 07:39:36;;;;;;;24.83;16.50;;;4.50;99.90;;;;;;5044585;28;20048;-54
2022/01/10 07:42:03;;;;;;;28.27;17.35;;;4.40;99.90;;;;;;5049360;28;20076;-52
2022/01/10 07:44:28;;;;;;;28.13;17.95;;;4.40;99.90;;;;;;5050324;28;20083;-52
2022/01/10 07:46:55;;;;;;;30.90;18.92;;;4.40;99.90;;;;;;5050200;28;20037;-52
2022/01/10 07:49:20;;;;;;;35.70;19.38;;;4.40;99.90;;;;;;5049580;28;20391;-54
2022/01/10 07:51:46;;;;;;;34.13;19.83;;;4.40;99.90;;;;;;5049258;28;20027;-51
2022/01/10 07:54:12;;;;;;;35.20;20.65;;;4.30;99.90;;;;;;5049256;28;20067;-51
2022/01/10 07:56:38;;;;;;;41.28;22.05;;;4.30;99.90;;;;;;5047980;28;20458;-54
2022/01/10 07:59:04;;;;;;;35.85;21.00;;;4.40;99.90;;;;;;5049424;28;20060;-53
2022/01/10 08:01:29;;;;;;;35.15;20.90;;;4.40;99.90;;;;;;5032814;28;20433;-51
2022/01/10 08:03:55;;;;;;;34.90;20.48;;;4.40;99.90;;;;;;5028109;28;20431;-51
2022/01/10 08:06:22;;;;;;;37.75;21.63;;;4.40;99.90;;;;;;5029528;28;20387;-50
2022/01/10 08:08:47;;;;;;;35.30;21.02;;;4.40;99.90;;;;;;5028052;28;20336;-51
2022/01/10 08:11:13;;;;;;;37.88;20.60;;;4.50;99.90;;;;;;5028539;28;20052;-50
2022/01/10 08:13:41;;;;;;;40.20;22.20;;;4.40;99.90;;;;;;5029114;28;20063;-54
2022/01/10 08:16:07;;;;;;;38.53;22.42;;;4.50;99.90;;;;;;5029423;28;20095;-53
2022/01/10 08:18:34;;;;;;;38.83;23.33;;;4.40;99.90;;;;;;5029437;28;20052;-52
2022/01/10 08:21:00;;;;;;;47.20;27.60;;;4.50;99.90;;;;;;5028576;28;20026;-51
2022/01/10 08:23:25;;;;;;;40.58;24.63;;;4.50;99.90;;;;;;5029450;28;20033;-54
2022/01/10 08:25:51;;;;;;;37.15;22.73;;;4.50;99.90;;;;;;5029722;28;20025;-51
2022/01/10 08:28:17;;;;;;;42.70;24.25;;;4.50;99.90;;;;;;5029544;28;20426;-53
2022/01/10 08:30:43;;;;;;;43.55;24.55;;;4.50;99.90;;;;;;5028647;28;20021;-54
2022/01/10 08:33:08;;;;;;;38.75;22.85;;;4.50;99.90;;;;;;5028996;28;20029;-51
2022/01/10 08:35:34;;;;;;;43.15;23.95;;;4.50;99.90;;;;;;5029574;28;20479;-53
2022/01/10 08:38:00;;;;;;;41.85;23.85;;;4.60;99.90;;;;;;5028878;28;20413;-50
2022/01/10 08:40:26;;;;;;;41.80;24.08;;;4.70;99.90;;;;;;5028772;28;20395;-54
2022/01/10 08:42:51;;;;;;;38.25;21.50;;;4.60;99.90;;;;;;5028085;28;20032;-51
2022/01/10 08:45:17;;;;;;;42.92;23.38;;;4.60;99.90;;;;;;5028957;28;20033;-51
2022/01/10 08:47:43;;;;;;;39.03;22.27;;;4.70;99.90;;;;;;5029651;28;20029;-54
2022/01/10 08:50:10;;;;;;;46.97;23.13;;;4.70;99.90;;;;;;5028686;28;20063;-53
2022/01/10 08:52:37;;;;;;;48.22;24.02;;;4.70;99.90;;;;;;5029264;28;20037;-54
2022/01/10 08:55:04;;;;;;;42.90;24.25;;;4.70;99.90;;;;;;5028873;28;20034;-51
2022/01/10 08:57:30;;;;;;;46.88;22.55;;;4.80;99.90;;;;;;5029267;28;20025;-53
2022/01/10 08:59:55;;;;;;;41.35;22.80;;;4.80;99.90;;;;;;5028301;28;20041;-54
2022/01/10 09:02:21;;;;;;;46.65;23.85;;;4.80;99.90;;;;;;5029308;28;20109;-50
2022/01/10 09:04:47;;;;;;;41.17;22.90;;;4.80;99.90;;;;;;5029276;28;20032;-53
2022/01/10 09:07:13;;;;;;;42.97;23.45;;;4.80;99.90;;;;;;5029007;28;20053;-52
2022/01/10 09:09:39;;;;;;;43.75;23.08;;;4.80;99.90;;;;;;5028492;28;20128;-51
2022/01/10 09:12:05;;;;;;;47.13;26.83;;;4.80;99.90;;;;;;5029055;28;20523;-54
2022/01/10 09:14:31;;;;;;;46.70;26.05;;;4.90;99.90;;;;;;5029358;28;20426;-51
2022/01/10 09:16:57;;;;;;;47.72;25.75;;;4.90;99.90;;;;;;5028925;28;20030;-51
2022/01/10 09:19:22;;;;;;;46.83;25.30;;;4.90;99.90;;;;;;5028644;28;20038;-54
2022/01/10 09:21:48;;;;;;;42.47;23.25;;;4.90;99.90;;;;;;5028514;28;20036;-55
2022/01/10 09:24:15;;;;;;;43.25;23.33;;;5.00;99.90;;;;;;5028662;28;20026;-54
2022/01/10 09:26:41;;;;;;;40.95;22.73;;;5.00;99.90;;;;;;5032886;28;20047;-54
2022/01/10 09:29:07;;;;;;;45.90;23.85;;;5.10;99.90;;;;;;5032483;28;20398;-52
2022/01/10 09:31:33;;;;;;;39.90;22.65;;;5.00;99.90;;;;;;5031706;28;20026;-55
2022/01/10 09:33:59;;;;;;;45.03;22.80;;;5.20;99.90;;;;;;5031794;28;20056;-53
2022/01/10 09:36:27;;;;;;;40.50;21.63;;;5.20;99.90;;;;;;5032240;28;20105;-55
2022/01/10 09:38:55;;;;;;;41.67;22.23;;;5.30;99.90;;;;;;5031936;28;20398;-54
2022/01/10 09:41:21;;;;;;;42.13;23.50;;;5.30;99.90;;;;;;5031687;28;20044;-54
2022/01/10 09:44:01;;;;;;;49.42;25.35;;;5.30;99.90;;;;;;5031890;28;20022;-52
2022/01/10 09:46:28;;;;;;;48.72;24.90;;;5.20;99.90;;;;;;5032040;28;20036;-54
2022/01/10 09:48:55;;;;;;;44.00;22.33;;;5.20;99.90;;;;;;5031717;28;20093;-55
2022/01/10 09:51:26;;;;;;;44.28;22.88;;;5.20;99.90;;;;;;5031386;28;20053;-56
2022/01/10 09:53:52;;;;;;;44.90;23.42;;;5.20;99.90;;;;;;5031661;28;20030;-52
2022/01/10 09:56:18;;;;;;;49.75;25.63;;;5.30;99.90;;;;;;5031801;28;20026;-51
2022/01/10 09:58:44;;;;;;;72.60;35.75;;;5.30;99.90;;;;;;5031507;28;20039;-54
2022/01/10 10:01:13;;;;;;;60.90;29.65;;;5.30;99.90;;;;;;5046266;28;20022;-51
2022/01/10 10:03:39;;;;;;;58.47;27.98;;;5.40;99.90;;;;;;5031527;28;20556;-55
2022/01/10 10:06:05;;;;;;;55.20;26.50;;;5.30;99.90;;;;;;5032079;28;20033;-51
2022/01/10 10:08:31;;;;;;;48.70;24.35;;;5.30;99.90;;;;;;5032080;28;20030;-51
2022/01/10 10:10:59;;;;;;;43.17;22.92;;;5.30;99.90;;;;;;5031274;28;20668;-51
2022/01/10 10:13:25;;;;;;;46.08;23.20;;;5.40;99.90;;;;;;5032114;28;20030;-54
2022/01/10 10:15:52;;;;;;;45.22;23.33;;;5.40;99.90;;;;;;5032430;28;20037;-51
2022/01/10 10:18:18;;;;;;;53.35;24.45;;;5.40;99.90;;;;;;5031900;28;20025;-53
2022/01/10 10:20:44;;;;;;;57.42;27.33;;;5.50;99.90;;;;;;5031241;28;20062;-52
2022/01/10 10:23:14;;;;;;;57.33;27.17;;;5.50;99.90;;;;;;5031954;28;20520;-52
2022/01/10 10:25:47;;;;;;;56.50;27.75;;;5.50;99.90;;;;;;5031869;28;20034;-50
2022/01/10 10:28:13;;;;;;;53.03;27.27;;;5.60;99.90;;;;;;5030943;28;20091;-51
2022/01/10 10:30:39;;;;;;;58.15;27.10;;;5.60;99.90;;;;;;5030811;28;20041;-52
2022/01/10 10:33:16;;;;;;;55.35;26.77;;;5.60;99.90;;;;;;5031222;28;20052;-54
2022/01/10 10:35:53;;;;;;;56.80;27.80;;;5.70;99.90;;;;;;5030506;28;20032;-55
2022/01/10 10:38:18;;;;;;;56.20;30.15;;;5.60;99.90;;;;;;5030941;28;20037;-54
2022/01/10 10:40:45;;;;;;;67.60;28.30;;;5.60;99.90;;;;;;5029431;28;20026;-54
2022/01/10 10:43:11;;;;;;;60.80;28.45;;;5.70;99.90;;;;;;5030627;28;20022;-51
2022/01/10 10:45:38;;;;;;;54.90;25.95;;;5.70;99.90;;;;;;5030961;28;20029;-51
2022/01/10 10:48:07;;;;;;;54.45;27.10;;;5.70;99.90;;;;;;5030605;28;20114;-55
2022/01/10 10:50:41;;;;;;;54.42;24.98;;;5.70;99.90;;;;;;5030358;28;20088;-51
2022/01/10 10:53:13;;;;;;;49.00;24.48;;;5.60;99.90;;;;;;5030508;28;20033;-51
2022/01/10 10:55:40;;;;;;;57.13;25.95;;;5.60;99.90;;;;;;5030838;28;20026;-53
2022/01/10 10:58:07;;;;;;;54.28;26.20;;;5.60;99.90;;;;;;5030239;28;20040;-53
2022/01/10 11:00:33;;;;;;;55.60;26.45;;;5.60;99.90;;;;;;5029910;28;20060;-52
2022/01/10 11:02:59;;;;;;;59.65;29.00;;;5.70;99.90;;;;;;5030050;28;20060;-53
2022/01/10 11:05:25;;;;;;;56.17;27.48;;;5.60;99.90;;;;;;5030258;28;20037;-52
2022/01/10 11:07:51;;;;;;;56.92;28.25;;;5.60;99.90;;;;;;5030006;28;20039;-51
2022/01/10 11:10:17;;;;;;;62.70;29.55;;;5.60;99.90;;;;;;5029251;28;20048;-53
2022/01/10 11:12:52;;;;;;;58.00;27.83;;;5.60;99.90;;;;;;5030296;28;20025;-50
2022/01/10 11:15:18;;;;;;;57.63;27.83;;;5.60;99.90;;;;;;5030063;28;20517;-50
2022/01/10 11:17:44;;;;;;;56.38;27.38;;;5.60;99.90;;;;;;5029695;28;20029;-53
2022/01/10 11:20:23;;;;;;;59.83;28.48;;;5.60;99.90;;;;;;5029343;28;20095;-50
2022/01/10 11:22:57;;;;;;;57.45;28.58;;;5.60;99.90;;;;;;5045289;28;20112;-52
2022/01/10 11:25:34;;;;;;;59.47;27.92;;;5.60;99.90;;;;;;5030125;28;20025;-53
2022/01/10 11:28:06;;;;;;;55.58;26.27;;;5.70;99.90;;;;;;5029590;28;20028;-50
2022/01/10 11:30:42;;;;;;;52.65;27.33;;;5.70;99.90;;;;;;5029408;28;20205;-50
2022/01/10 11:33:09;;;;;;;56.58;26.83;;;5.70;99.90;;;;;;5029715;28;20163;-50
2022/01/10 11:35:42;;;;;;;51.55;25.85;;;5.70;99.90;;;;;;5029966;28;20022;-51
2022/01/10 11:38:27;;;;;;;53.60;26.27;;;5.70;99.90;;;;;;5029357;28;20022;-52
2022/01/10 11:41:18;;;;;;;54.25;26.30;;;5.70;99.90;;;;;;5029083;28;20025;-53
2022/01/10 11:44:06;;;;;;;59.03;28.15;;;5.80;99.90;;;;;;5029213;28;20018;-54
2022/01/10 11:46:51;;;;;;;51.80;26.63;;;5.80;99.90;;;;;;5029050;28;20099;-54
2022/01/10 11:49:19;;;;;;;52.83;26.90;;;5.80;99.90;;;;;;5028889;28;20482;-54
2022/01/10 11:51:59;;;;;;;57.15;28.35;;;5.80;99.90;;;;;;5028975;28;20094;-54
2022/01/10 11:54:41;;;;;;;56.50;28.25;;;5.80;99.90;;;;;;5029791;28;20030;-54
2022/01/10 11:57:12;;;;;;;58.72;27.33;;;5.80;99.90;;;;;;5029091;28;20712;-52
2022/01/10 11:59:39;;;;;;;55.97;28.85;;;5.80;99.90;;;;;;5028752;28;20119;-54
2022/01/10 12:02:27;;;;;;;53.83;28.05;;;5.80;99.90;;;;;;5029200;28;20236;-55
2022/01/10 12:05:00;;;;;;;57.10;27.10;;;5.80;99.90;;;;;;5028945;28;20040;-54
2022/01/10 12:07:27;;;;;;;48.85;26.70;;;5.90;99.90;;;;;;5029568;28;20030;-52
2022/01/10 12:09:54;;;;;;;55.65;27.58;;;5.80;99.90;;;;;;5028492;28;20518;-52
2022/01/10 12:12:21;;;;;;;55.22;28.15;;;5.90;99.90;;;;;;5029270;28;20029;-52
2022/01/10 12:14:49;;;;;;;58.30;29.60;;;5.80;99.90;;;;;;5029200;28;20106;-54
2022/01/10 12:17:15;;;;;;;62.78;30.98;;;5.80;99.90;;;;;;5029213;28;20044;-54
2022/01/10 12:19:41;;;;;;;61.67;30.35;;;5.80;99.90;;;;;;5028486;28;20045;-52
2022/01/10 12:22:08;;;;;;;64.72;31.92;;;5.80;99.90;;;;;;5028948;28;20021;-52
2022/01/10 12:24:39;;;;;;;69.95;33.70;;;5.80;99.90;;;;;;5029328;28;20040;-52
2022/01/10 12:27:06;;;;;;;69.43;32.15;;;5.80;99.90;;;;;;5029032;28;20386;-53
2022/01/10 12:29:33;;;;;;;67.78;33.40;;;5.80;99.90;;;;;;5029029;28;20425;-53
2022/01/10 12:32:00;;;;;;;69.47;35.22;;;5.70;99.90;;;;;;5028837;28;20056;-53
2022/01/10 12:34:26;;;;;;;83.03;36.85;;;5.70;99.90;;;;;;5029027;28;20355;-56
2022/01/10 12:36:52;;;;;;;67.25;32.10;;;5.70;99.90;;;;;;5028974;28;20038;-53
2022/01/10 12:39:30;;;;;;;72.72;33.45;;;5.70;99.90;;;;;;5028411;28;20032;-52
2022/01/10 12:41:58;;;;;;;69.97;32.65;;;5.80;99.90;;;;;;5028307;28;20140;-52
2022/01/10 12:44:25;;;;;;;63.90;30.27;;;5.80;99.90;;;;;;5029272;28;20033;-51
2022/01/10 12:46:51;;;;;;;66.88;30.98;;;5.80;99.90;;;;;;5028672;28;20025;-52
2022/01/10 12:49:17;;;;;;;67.78;32.78;;;5.80;99.90;;;;;;5028729;28;20495;-51
2022/01/10 12:51:46;;;;;;;66.75;31.13;;;5.90;99.90;;;;;;5028651;28;20026;-51